Alvadore, Oregon
Current Conditions -  °F | °C
As of 3:16 AM on Saturday 25 Oct 2014 (Local Time) from KEUG Reporting Station
Haze Haze  
Wind Chill: 51°   Ceiling: 200
Heat Index: 51°   Visibility: 1.2mi
Dew Point: 50°   Wind: 5mph
Humidity: 96%   Direction: 330°NNW
Pressure: 29.55"   Gusts: NA
Location:  44.13°N, 123.26°W
Report Text: KEUG 251016Z AUTO 33004KT 1 1/4SM R16R/5000VP6000FT BR OVC002 11/10 A2955 RMK AO2 T01060100
Loading
Personal Weather Stations






























Interactive Weather Map New forecast layout! Learn more

10-Day Weather Forecast

Advertisements
Track Severe Weather on mobile